Eleanor Hadley — WDI9237 — position and weather

sailwx.info

Track history (hours):
 
Tides and Currents Weather Stations Pressure Air Temp Water Temp Dewpoint Dewpoint Depression Visibility Wind Speed Wind Dir Waves Ship Positions

Eleanor Hadley

Owner: Genesis Marine, LLC, Houston, TX. More information available from US FCC via Universal Licensing System and Coast Guard Vessel Documentation Center.

Last reported at 2018-Jun-18 17:10 UTC. Time now 2018-Jun-20 22:39 UTC.
Position N 29°51' W 091°54'.

Length 26 m; draft 2.9 m.

Type: Ship (hazmat cat B). MMSI: 367746670.

Date/timePositionNaut miles runAvg speedWind from/ knotsBaromVisibWave heightAir tempDewpointWater temp
2018-Jun-18 17:10N 29°51' W 091°54'1 4.2
2018-Jun-18 17:00N 29°51' W 091°54'3 4.6
2018-Jun-18 16:25N 29°50' W 091°58'2 5.0
2018-Jun-18 16:00N 29°50' W 091°60'2 5.0
2018-Jun-18 15:31N 29°49' W 092°03'3 5.3
2018-Jun-18 15:00N 29°48' W 092°05'3 5.3
2018-Jun-18 14:30N 29°47' W 092°08'2 4.2
2018-Jun-18 14:00N 29°47' W 092°11'2 3.5
2018-Jun-18 13:31N 29°47' W 092°12'1 1.1
2018-Jun-18 12:59N 29°47' W 092°13'1 1.7
2018-Jun-18 12:30N 29°48' W 092°14'0 0.4
2018-Jun-18 12:00N 29°48' W 092°14'0 0.3
2018-Jun-18 11:30N 29°48' W 092°14'0 0.3
2018-Jun-18 11:00N 29°48' W 092°14'0 0.2
2018-Jun-18 10:30N 29°48' W 092°15'1 1.5
2018-Jun-18 10:00N 29°48' W 092°15'2 3.9
2018-Jun-18 09:30N 29°49' W 092°17'2 3.4
2018-Jun-18 09:01N 29°50' W 092°19'2 3.2
2018-Jun-18 08:30N 29°51' W 092°21'1 2.5
2018-Jun-18 07:56N 29°51' W 092°22'0 0.0
2018-Jun-18 07:27N 29°52' W 092°22'1 1.6
2018-Jun-18 07:00N 29°52' W 092°22'37 4.3
2018-Jun-17 22:27N 29°56' W 093°05'1 3.1
2018-Jun-17 22:00N 29°56' W 093°06'2 4.0
2018-Jun-17 21:30N 29°56' W 093°09'2 3.9
2018-Jun-17 21:00N 29°57' W 093°11'2 4.2
2018-Jun-17 20:30N 29°59' W 093°12'2 3.4
2018-Jun-17 20:00N 30°00' W 093°13'2 3.4
2018-Jun-17 19:30N 30°02' W 093°14'1 2.8
2018-Jun-17 19:00N 30°02' W 093°16'2 3.5
2018-Jun-17 18:30N 30°04' W 093°16'2 3.4
2018-Jun-17 18:00N 30°05' W 093°18'0 0.7
2018-Jun-17 17:30N 30°05' W 093°18'1 1.1
2018-Jun-17 17:00N 30°06' W 093°18'0 0.4
2018-Jun-17 16:30N 30°06' W 093°18'0 0.2
2018-Jun-17 16:00N 30°06' W 093°18'0 0.0
2018-Jun-17 15:30N 30°06' W 093°18'0 0.0
2018-Jun-17 15:01N 30°06' W 093°18'0 0.0
2018-Jun-17 14:31N 30°06' W 093°18'0 0.0
2018-Jun-17 14:00N 30°06' W 093°18'0 0.1
2018-Jun-17 13:30N 30°06' W 093°18'0 0.2
2018-Jun-17 13:00N 30°06' W 093°18'0 0.1
2018-Jun-17 12:31N 30°06' W 093°18'0 0.0
2018-Jun-17 12:00N 30°06' W 093°18'0 0.2
2018-Jun-17 11:30N 30°06' W 093°18'2 3.5
2018-Jun-17 11:00N 30°05' W 093°20'2 3.8
2018-Jun-17 10:30N 30°04' W 093°21'1 3.0
2018-Jun-17 10:00N 30°04' W 093°23'0 0.0
2018-Jun-17 09:29N 30°04' W 093°23'0 0.0
2018-Jun-17 09:00N 30°04' W 093°23'0 0.0
2018-Jun-17 08:30N 30°04' W 093°23'0 0.0
2018-Jun-17 08:00N 30°04' W 093°23'0 0.0
2018-Jun-17 07:31N 30°04' W 093°23'0 0.0
2018-Jun-17 07:00N 30°04' W 093°23'0 0.0
2018-Jun-17 06:30N 30°04' W 093°23'0 0.0
2018-Jun-17 06:00N 30°04' W 093°23'0 0.0
2018-Jun-17 05:30N 30°04' W 093°23'0 0.0
2018-Jun-17 04:57N 30°04' W 093°23'0 0.0
2018-Jun-17 04:30N 30°04' W 093°23'0 0.0
2018-Jun-17 04:00N 30°04' W 093°23'0 0.0
2018-Jun-17 03:30N 30°04' W 093°23'0 0.0
2018-Jun-17 03:00N 30°04' W 093°23'0 0.0
2018-Jun-17 02:30N 30°04' W 093°23'0 0.0
2018-Jun-17 02:00N 30°04' W 093°23'0 0.0
2018-Jun-17 01:29N 30°04' W 093°23'0 0.0
2018-Jun-17 01:01N 30°04' W 093°23'0 0.0
2018-Jun-17 00:30N 30°04' W 093°23'0 0.0
2018-Jun-17 00:00N 30°04' W 093°23'0 0.0
2018-Jun-16 23:30N 30°04' W 093°23'0 0.1
2018-Jun-16 23:00N 30°04' W 093°23'0 0.1
2018-Jun-16 22:30N 30°04' W 093°23'0 0.4
2018-Jun-16 22:00N 30°04' W 093°23'0 0.1
2018-Jun-16 21:30N 30°04' W 093°23'1 1.7
2018-Jun-16 21:00N 30°04' W 093°24'2 4.4
2018-Jun-16 20:30N 30°04' W 093°27'2 4.7
2018-Jun-16 20:00N 30°04' W 093°30'2 4.8
2018-Jun-16 19:30N 30°04' W 093°33'2 4.8
2018-Jun-16 18:59N 30°04' W 093°35'3 5.3
2018-Jun-16 18:30N 30°04' W 093°38'3 5.7
2018-Jun-16 17:59N 30°04' W 093°42'3 5.2
2018-Jun-16 17:30N 30°02' W 093°44'3 5.5
2018-Jun-16 17:00N 30°00' W 093°46'3 6.0
2018-Jun-16 16:30N 29°59' W 093°49'2 3.3
2018-Jun-16 16:00N 29°58' W 093°51'0 0.0
2018-Jun-16 15:30N 29°58' W 093°51'0 0.0
2018-Jun-16 15:00N 29°58' W 093°51'0 0.0
2018-Jun-16 14:30N 29°58' W 093°51'0 0.0
2018-Jun-16 13:59N 29°58' W 093°51'0 0.0
2018-Jun-16 13:30N 29°58' W 093°51'0 0.0
2018-Jun-16 13:00N 29°58' W 093°51'0 0.0
2018-Jun-16 12:30N 29°58' W 093°51'0 0.0
2018-Jun-16 12:00N 29°58' W 093°51'0 0.2
2018-Jun-16 11:30N 29°58' W 093°51'0 0.0
2018-Jun-16 11:00N 29°58' W 093°51'0 0.0
2018-Jun-16 10:30N 29°58' W 093°51'0 0.0
2018-Jun-16 10:00N 29°58' W 093°51'0 0.0
2018-Jun-16 09:31N 29°58' W 093°51'0 0.0
2018-Jun-16 09:00N 29°58' W 093°51'0 0.0
2018-Jun-16 08:30N 29°58' W 093°51'1 1.0
2018-Jun-16 08:00N 29°58' W 093°51'3 5.6
2018-Jun-16 07:31N 29°55' W 093°53'2 4.9
2018-Jun-16 07:00N 29°54' W 093°55'2 4.5
2018-Jun-16 06:30N 29°52' W 093°56'2 4.1
2018-Jun-16 06:01N 29°50' W 093°57'2 4.4
2018-Jun-16 05:30N 29°49' W 093°60'3 5.2
2018-Jun-16 05:00N 29°47' W 094°02'3 5.5
2018-Jun-16 04:31N 29°45' W 094°04'3 5.6
2018-Jun-16 04:00N 29°43' W 094°07'2 4.5
2018-Jun-16 03:30N 29°42' W 094°09'2 4.7
2018-Jun-16 03:00N 29°41' W 094°11'2 5.0
2018-Jun-16 02:30N 29°40' W 094°14'2 4.9
2018-Jun-16 02:00N 29°39' W 094°16'2 4.8
2018-Jun-16 01:30N 29°38' W 094°19'2 4.8
2018-Jun-16 01:00N 29°37' W 094°21'2 4.4
2018-Jun-16 00:30N 29°36' W 094°23'3 3.5
2018-Jun-15 23:39N 29°34' W 094°26'21 3.6
2018-Jun-15 17:43N 29°23' W 094°47'1 5.5
2018-Jun-15 17:30N 29°22' W 094°48'15 6.9
2018-Jun-15 15:22N 29°35' W 094°56'3 7.5
2018-Jun-15 14:59N 29°38' W 094°58'4 7.3
2018-Jun-15 14:29N 29°41' W 094°59'  
2018-Jun-12 19:18N 29°42' W 095°01'2 7.0
2018-Jun-12 19:00N 29°41' W 094°59'4 6.8
2018-Jun-12 18:28N 29°38' W 094°58'4 7.8
2018-Jun-12 18:01N 29°34' W 094°56'13 7.4
2018-Jun-12 16:17N 29°23' W 094°49'2 6.4
2018-Jun-12 16:00N 29°21' W 094°49'1 1.5
2018-Jun-12 15:29N 29°21' W 094°49'0 0.0
2018-Jun-12 15:00N 29°21' W 094°49'0 0.0
2018-Jun-12 14:30N 29°21' W 094°49'0 0.0
2018-Jun-12 14:00N 29°21' W 094°49'1 1.7
2018-Jun-12 13:31N 29°21' W 094°48'1 1.9
2018-Jun-12 12:59N 29°21' W 094°49'0 0.0
2018-Jun-12 12:26N 29°21' W 094°49'0 0.0
2018-Jun-12 11:49N 29°21' W 094°49'0 0.0
2018-Jun-12 11:29N 29°21' W 094°49'0 0.0
2018-Jun-12 02:36N 29°21' W 094°49'0 0.0
2018-Jun-12 02:28N 29°21' W 094°49'0 0.0
2018-Jun-12 01:59N 29°21' W 094°49'0 0.0
2018-Jun-12 01:31N 29°21' W 094°49'0 0.0
2018-Jun-12 00:59N 29°21' W 094°49'0 0.0
2018-Jun-12 00:31N 29°21' W 094°49'0 0.0
2018-Jun-12 00:00N 29°21' W 094°49'0 0.0
2018-Jun-11 23:29N 29°21' W 094°49'0 0.0
2018-Jun-11 22:59N 29°21' W 094°49'0 0.0
2018-Jun-11 22:30N 29°21' W 094°49'0 0.0
2018-Jun-11 22:00N 29°21' W 094°49'0 0.0
2018-Jun-11 21:30N 29°21' W 094°49'0 0.0
2018-Jun-11 21:00N 29°21' W 094°49'0 0.0
2018-Jun-11 20:30N 29°21' W 094°49'0 0.0
2018-Jun-11 19:59N 29°21' W 094°49'0 0.0
2018-Jun-11 19:30N 29°21' W 094°49'0 0.0
2018-Jun-11 18:59N 29°21' W 094°49'0 0.0
2018-Jun-11 18:30N 29°21' W 094°49'0 0.0
2018-Jun-11 17:57N 29°21' W 094°49'0 0.0
2018-Jun-11 17:30N 29°21' W 094°49'0 0.0
2018-Jun-11 17:00N 29°21' W 094°49'0 0.0
2018-Jun-11 16:27N 29°21' W 094°49'0 0.0
2018-Jun-11 16:00N 29°21' W 094°49'0 0.0
2018-Jun-11 15:18N 29°21' W 094°49'0 0.0
2018-Jun-11 15:00N 29°21' W 094°49'0 0.0
2018-Jun-11 14:27N 29°21' W 094°49'0 0.0
2018-Jun-11 14:00N 29°21' W 094°49'0 0.0
2018-Jun-11 13:29N 29°21' W 094°49'0 0.0
2018-Jun-11 13:00N 29°21' W 094°49'0 0.0
2018-Jun-11 12:30N 29°21' W 094°49'0 0.0
2018-Jun-11 11:59N 29°21' W 094°49'0 0.0
2018-Jun-11 11:31N 29°21' W 094°49'0 0.0
2018-Jun-11 11:00N 29°21' W 094°49'0 0.0
2018-Jun-11 10:29N 29°21' W 094°49'0 0.0
2018-Jun-11 09:57N 29°21' W 094°49'0 0.0
2018-Jun-11 08:58N 29°21' W 094°49'0 0.0
2018-Jun-11 08:30N 29°21' W 094°49'0 0.0
2018-Jun-11 07:58N 29°21' W 094°49'0 0.0
2018-Jun-11 07:30N 29°21' W 094°49'0 0.0
2018-Jun-11 06:20N 29°21' W 094°49'0 0.0
2018-Jun-11 05:50N 29°21' W 094°49'0 0.0
2018-Jun-11 05:30N 29°21' W 094°49'0 0.0
2018-Jun-11 04:44N 29°21' W 094°49'0 0.0
2018-Jun-11 04:21N 29°21' W 094°49'2 5.1
2018-Jun-11 04:00N 29°20' W 094°51'0 0.6
2018-Jun-11 03:30N 29°20' W 094°51'0 0.3
2018-Jun-11 03:00N 29°19' W 094°51'2 4.4
2018-Jun-11 02:27N 29°21' W 094°49'33 5.6
2018-Jun-10 20:36N 29°38' W 094°18'2 5.7
2018-Jun-10 20:16N 29°39' W 094°16'1 5.6
2018-Jun-10 20:00N 29°40' W 094°14'3 5.6
2018-Jun-10 19:30N 29°41' W 094°11'1 2.0
2018-Jun-10 19:00N 29°41' W 094°10'3 5.3
2018-Jun-10 18:30N 29°43' W 094°08'3 5.4
2018-Jun-10 18:00N 29°44' W 094°05'2 3.5
2018-Jun-10 17:30N 29°46' W 094°04'3 5.4
2018-Jun-10 17:00N 29°47' W 094°01'3 5.5
2018-Jun-10 16:30N 29°49' W 093°59'3 5.8
2018-Jun-10 16:00N 29°51' W 093°57'3 6.8
2018-Jun-10 15:30N 29°54' W 093°54'3 6.9
2018-Jun-10 15:00N 29°57' W 093°52'3 5.9
2018-Jun-10 14:30N 29°59' W 093°49'2 1.8
2018-Jun-10 13:30N 29°59' W 093°47'0 0.1
2018-Jun-10 13:00N 29°59' W 093°47'0 0.2
2018-Jun-10 12:30N 29°59' W 093°47'0 0.0
2018-Jun-10 12:00N 29°59' W 093°47'0 0.0
2018-Jun-10 11:30N 29°59' W 093°47'0 0.0
2018-Jun-10 10:59N 29°59' W 093°47'0 0.0
2018-Jun-10 10:28N 29°59' W 093°47'0 0.0
2018-Jun-10 09:59N 29°59' W 093°47'1 1.2
2018-Jun-10 09:30N 29°59' W 093°48'0 0.7
2018-Jun-10 09:00N 29°59' W 093°48'0 0.7
2018-Jun-10 08:30N 29°60' W 093°47'2 4.4
2018-Jun-10 08:00N 30°01' W 093°45'3 5.8
2018-Jun-10 07:30N 30°03' W 093°43'2 3.4
2018-Jun-10 07:00N 30°04' W 093°41'2 4.0
2018-Jun-10 06:29N 30°04' W 093°39'3 5.9
2018-Jun-10 05:56N 30°04' W 093°35'3 5.8
2018-Jun-10 05:30N 30°04' W 093°32'3 5.6
2018-Jun-10 05:00N 30°04' W 093°29'3 5.6
2018-Jun-10 04:30N 30°04' W 093°26'3 5.4
2018-Jun-10 04:00N 30°04' W 093°23'2 3.3
2018-Jun-10 03:31N 30°04' W 093°21'2 4.4
2018-Jun-10 03:00N 30°06' W 093°19'2 3.1
2018-Jun-10 02:30N 30°05' W 093°18'1 2.7
2018-Jun-10 02:00N 30°04' W 093°16'0 0.0
2018-Jun-10 01:30N 30°04' W 093°16'0 0.0
2018-Jun-10 01:00N 30°04' W 093°16'0 0.0
2018-Jun-10 00:30N 30°04' W 093°16'0 0.0
2018-Jun-10 00:00N 30°04' W 093°16'0 0.0
2018-Jun-09 23:29N 30°04' W 093°16'0 0.0
2018-Jun-09 23:00N 30°04' W 093°16'0 0.0
2018-Jun-09 22:30N 30°04' W 093°16'0 0.0
2018-Jun-09 22:00N 30°04' W 093°16'0 0.0
2018-Jun-09 21:31N 30°04' W 093°16'0 0.1
2018-Jun-09 21:00N 30°04' W 093°16'0 0.1
2018-Jun-09 20:30N 30°04' W 093°16'0 0.0
2018-Jun-09 20:00N 30°04' W 093°16'0 0.1
2018-Jun-09 19:30N 30°04' W 093°16'0 0.0
2018-Jun-09 19:00N 30°04' W 093°16'0 0.0
2018-Jun-09 18:30N 30°04' W 093°16'0 0.0
2018-Jun-09 18:00N 30°04' W 093°16'1 1.5
2018-Jun-09 17:31N 30°04' W 093°16'1 2.2
2018-Jun-09 17:00N 30°03' W 093°16'0 0.4
2018-Jun-09 16:30N 30°02' W 093°16'2 3.0
2018-Jun-09 16:00N 30°02' W 093°14'0 0.0
2018-Jun-09 15:01N 30°02' W 093°14'0 0.0
2018-Jun-09 14:31N 30°02' W 093°14'0 0.0
2018-Jun-09 14:00N 30°02' W 093°14'0 0.0
2018-Jun-09 13:30N 30°02' W 093°14'0 0.0
2018-Jun-09 13:00N 30°02' W 093°14'0 0.0
2018-Jun-09 12:30N 30°02' W 093°14'0 0.0
2018-Jun-09 12:00N 30°02' W 093°14'0 0.1
2018-Jun-09 11:31N 30°02' W 093°14'0 0.2
2018-Jun-09 11:00N 30°01' W 093°14'0 0.8
2018-Jun-09 10:30N 30°01' W 093°14'2 3.4
2018-Jun-09 10:01N 29°60' W 093°13'2 3.6
2018-Jun-09 09:30N 29°58' W 093°12'0 0.6
2018-Jun-09 08:59N 29°58' W 093°11'1 1.1
2018-Jun-09 08:28N 29°58' W 093°11'0 0.3
2018-Jun-09 08:00N 29°58' W 093°11'0 0.0
2018-Jun-09 07:28N 29°58' W 093°11'0 0.1
2018-Jun-09 07:00N 29°58' W 093°11'0 0.1
2018-Jun-09 06:30N 29°58' W 093°11'0 0.0
2018-Jun-09 06:00N 29°58' W 093°11'0 0.0
2018-Jun-09 05:30N 29°58' W 093°11'0 0.0
2018-Jun-09 05:00N 29°58' W 093°11'0 0.0
2018-Jun-09 04:30N 29°58' W 093°11'0 0.0
2018-Jun-09 04:00N 29°58' W 093°11'0 0.0
2018-Jun-09 03:30N 29°58' W 093°11'0 0.0
2018-Jun-09 03:00N 29°58' W 093°11'0 0.0
2018-Jun-09 02:31N 29°58' W 093°11'0 0.0
2018-Jun-09 01:59N 29°58' W 093°11'0 1.0
2018-Jun-09 01:30N 29°57' W 093°11'2 3.7
2018-Jun-09 01:00N 29°56' W 093°09'2 3.9
2018-Jun-09 00:30N 29°56' W 093°07'  
Track history (hours):
 
Tides and Currents Weather Stations Pressure Air Temp Water Temp Dewpoint Dewpoint Depression Visibility Wind Speed Wind Dir Waves Ship Positions

Eleanor Hadley

Owner: Genesis Marine, LLC, Houston, TX. More information available from US FCC via Universal Licensing System and Coast Guard Vessel Documentation Center.

Last reported at 2018-Jun-18 17:10 UTC. Time now 2018-Jun-20 22:39 UTC.
Position N 29°51' W 091°54'.

Length 26 m; draft 2.9 m.

Type: Ship (hazmat cat B). MMSI: 367746670.

Date/timePositionNaut miles runAvg speedWind from/ knotsBaromVisibWave heightAir tempDewpointWater temp
2018-Jun-18 17:10N 29°51' W 091°54'1 4.2
2018-Jun-18 17:00N 29°51' W 091°54'3 4.6
2018-Jun-18 16:25N 29°50' W 091°58'2 5.0
2018-Jun-18 16:00N 29°50' W 091°60'2 5.0
2018-Jun-18 15:31N 29°49' W 092°03'3 5.3
2018-Jun-18 15:00N 29°48' W 092°05'3 5.3
2018-Jun-18 14:30N 29°47' W 092°08'2 4.2
2018-Jun-18 14:00N 29°47' W 092°11'2 3.5
2018-Jun-18 13:31N 29°47' W 092°12'1 1.1
2018-Jun-18 12:59N 29°47' W 092°13'1 1.7
2018-Jun-18 12:30N 29°48' W 092°14'0 0.4
2018-Jun-18 12:00N 29°48' W 092°14'0 0.3
2018-Jun-18 11:30N 29°48' W 092°14'0 0.3
2018-Jun-18 11:00N 29°48' W 092°14'0 0.2
2018-Jun-18 10:30N 29°48' W 092°15'1 1.5
2018-Jun-18 10:00N 29°48' W 092°15'2 3.9
2018-Jun-18 09:30N 29°49' W 092°17'2 3.4
2018-Jun-18 09:01N 29°50' W 092°19'2 3.2
2018-Jun-18 08:30N 29°51' W 092°21'1 2.5
2018-Jun-18 07:56N 29°51' W 092°22'0 0.0
2018-Jun-18 07:27N 29°52' W 092°22'1 1.6
2018-Jun-18 07:00N 29°52' W 092°22'37 4.3
2018-Jun-17 22:27N 29°56' W 093°05'1 3.1
2018-Jun-17 22:00N 29°56' W 093°06'2 4.0
2018-Jun-17 21:30N 29°56' W 093°09'2 3.9
2018-Jun-17 21:00N 29°57' W 093°11'2 4.2
2018-Jun-17 20:30N 29°59' W 093°12'2 3.4
2018-Jun-17 20:00N 30°00' W 093°13'2 3.4
2018-Jun-17 19:30N 30°02' W 093°14'1 2.8
2018-Jun-17 19:00N 30°02' W 093°16'2 3.5
2018-Jun-17 18:30N 30°04' W 093°16'2 3.4
2018-Jun-17 18:00N 30°05' W 093°18'0 0.7
2018-Jun-17 17:30N 30°05' W 093°18'1 1.1
2018-Jun-17 17:00N 30°06' W 093°18'0 0.4
2018-Jun-17 16:30N 30°06' W 093°18'0 0.2
2018-Jun-17 16:00N 30°06' W 093°18'0 0.0
2018-Jun-17 15:30N 30°06' W 093°18'0 0.0
2018-Jun-17 15:01N 30°06' W 093°18'0 0.0
2018-Jun-17 14:31N 30°06' W 093°18'0 0.0
2018-Jun-17 14:00N 30°06' W 093°18'0 0.1
2018-Jun-17 13:30N 30°06' W 093°18'0 0.2
2018-Jun-17 13:00N 30°06' W 093°18'0 0.1
2018-Jun-17 12:31N 30°06' W 093°18'0 0.0
2018-Jun-17 12:00N 30°06' W 093°18'0 0.2
2018-Jun-17 11:30N 30°06' W 093°18'2 3.5
2018-Jun-17 11:00N 30°05' W 093°20'2 3.8
2018-Jun-17 10:30N 30°04' W 093°21'1 3.0
2018-Jun-17 10:00N 30°04' W 093°23'0 0.0
2018-Jun-17 09:29N 30°04' W 093°23'0 0.0
2018-Jun-17 09:00N 30°04' W 093°23'0 0.0
2018-Jun-17 08:30N 30°04' W 093°23'0 0.0
2018-Jun-17 08:00N 30°04' W 093°23'0 0.0
2018-Jun-17 07:31N 30°04' W 093°23'0 0.0
2018-Jun-17 07:00N 30°04' W 093°23'0 0.0
2018-Jun-17 06:30N 30°04' W 093°23'0 0.0
2018-Jun-17 06:00N 30°04' W 093°23'0 0.0
2018-Jun-17 05:30N 30°04' W 093°23'0 0.0
2018-Jun-17 04:57N 30°04' W 093°23'0 0.0
2018-Jun-17 04:30N 30°04' W 093°23'0 0.0
2018-Jun-17 04:00N 30°04' W 093°23'0 0.0
2018-Jun-17 03:30N 30°04' W 093°23'0 0.0
2018-Jun-17 03:00N 30°04' W 093°23'0 0.0
2018-Jun-17 02:30N 30°04' W 093°23'0 0.0
2018-Jun-17 02:00N 30°04' W 093°23'0 0.0
2018-Jun-17 01:29N 30°04' W 093°23'0 0.0
2018-Jun-17 01:01N 30°04' W 093°23'0 0.0
2018-Jun-17 00:30N 30°04' W 093°23'0 0.0
2018-Jun-17 00:00N 30°04' W 093°23'0 0.0
2018-Jun-16 23:30N 30°04' W 093°23'0 0.1
2018-Jun-16 23:00N 30°04' W 093°23'0 0.1
2018-Jun-16 22:30N 30°04' W 093°23'0 0.4
2018-Jun-16 22:00N 30°04' W 093°23'0 0.1
2018-Jun-16 21:30N 30°04' W 093°23'1 1.7
2018-Jun-16 21:00N 30°04' W 093°24'2 4.4
2018-Jun-16 20:30N 30°04' W 093°27'2 4.7
2018-Jun-16 20:00N 30°04' W 093°30'2 4.8
2018-Jun-16 19:30N 30°04' W 093°33'2 4.8
2018-Jun-16 18:59N 30°04' W 093°35'3 5.3
2018-Jun-16 18:30N 30°04' W 093°38'3 5.7
2018-Jun-16 17:59N 30°04' W 093°42'3 5.2
2018-Jun-16 17:30N 30°02' W 093°44'3 5.5
2018-Jun-16 17:00N 30°00' W 093°46'3 6.0
2018-Jun-16 16:30N 29°59' W 093°49'2 3.3
2018-Jun-16 16:00N 29°58' W 093°51'0 0.0
2018-Jun-16 15:30N 29°58' W 093°51'0 0.0
2018-Jun-16 15:00N 29°58' W 093°51'0 0.0
2018-Jun-16 14:30N 29°58' W 093°51'0 0.0
2018-Jun-16 13:59N 29°58' W 093°51'0 0.0
2018-Jun-16 13:30N 29°58' W 093°51'0 0.0
2018-Jun-16 13:00N 29°58' W 093°51'0 0.0
2018-Jun-16 12:30N 29°58' W 093°51'0 0.0
2018-Jun-16 12:00N 29°58' W 093°51'0 0.2
2018-Jun-16 11:30N 29°58' W 093°51'0 0.0
2018-Jun-16 11:00N 29°58' W 093°51'0 0.0
2018-Jun-16 10:30N 29°58' W 093°51'0 0.0
2018-Jun-16 10:00N 29°58' W 093°51'0 0.0
2018-Jun-16 09:31N 29°58' W 093°51'0 0.0
2018-Jun-16 09:00N 29°58' W 093°51'0 0.0
2018-Jun-16 08:30N 29°58' W 093°51'1 1.0
2018-Jun-16 08:00N 29°58' W 093°51'3 5.6
2018-Jun-16 07:31N 29°55' W 093°53'2 4.9
2018-Jun-16 07:00N 29°54' W 093°55'2 4.5
2018-Jun-16 06:30N 29°52' W 093°56'2 4.1
2018-Jun-16 06:01N 29°50' W 093°57'2 4.4
2018-Jun-16 05:30N 29°49' W 093°60'3 5.2
2018-Jun-16 05:00N 29°47' W 094°02'3 5.5
2018-Jun-16 04:31N 29°45' W 094°04'3 5.6
2018-Jun-16 04:00N 29°43' W 094°07'2 4.5
2018-Jun-16 03:30N 29°42' W 094°09'2 4.7
2018-Jun-16 03:00N 29°41' W 094°11'2 5.0
2018-Jun-16 02:30N 29°40' W 094°14'2 4.9
2018-Jun-16 02:00N 29°39' W 094°16'2 4.8
2018-Jun-16 01:30N 29°38' W 094°19'2 4.8
2018-Jun-16 01:00N 29°37' W 094°21'2 4.4
2018-Jun-16 00:30N 29°36' W 094°23'3 3.5
2018-Jun-15 23:39N 29°34' W 094°26'21 3.6
2018-Jun-15 17:43N 29°23' W 094°47'1 5.5
2018-Jun-15 17:30N 29°22' W 094°48'15 6.9
2018-Jun-15 15:22N 29°35' W 094°56'3 7.5
2018-Jun-15 14:59N 29°38' W 094°58'4 7.3
2018-Jun-15 14:29N 29°41' W 094°59'  
2018-Jun-12 19:18N 29°42' W 095°01'2 7.0
2018-Jun-12 19:00N 29°41' W 094°59'4 6.8
2018-Jun-12 18:28N 29°38' W 094°58'4 7.8
2018-Jun-12 18:01N 29°34' W 094°56'13 7.4
2018-Jun-12 16:17N 29°23' W 094°49'2 6.4
2018-Jun-12 16:00N 29°21' W 094°49'1 1.5
2018-Jun-12 15:29N 29°21' W 094°49'0 0.0
2018-Jun-12 15:00N 29°21' W 094°49'0 0.0
2018-Jun-12 14:30N 29°21' W 094°49'0 0.0
2018-Jun-12 14:00N 29°21' W 094°49'1 1.7
2018-Jun-12 13:31N 29°21' W 094°48'1 1.9
2018-Jun-12 12:59N 29°21' W 094°49'0 0.0
2018-Jun-12 12:26N 29°21' W 094°49'0 0.0
2018-Jun-12 11:49N 29°21' W 094°49'0 0.0
2018-Jun-12 11:29N 29°21' W 094°49'0 0.0
2018-Jun-12 02:36N 29°21' W 094°49'0 0.0
2018-Jun-12 02:28N 29°21' W 094°49'0 0.0
2018-Jun-12 01:59N 29°21' W 094°49'0 0.0
2018-Jun-12 01:31N 29°21' W 094°49'0 0.0
2018-Jun-12 00:59N 29°21' W 094°49'0 0.0
2018-Jun-12 00:31N 29°21' W 094°49'0 0.0
2018-Jun-12 00:00N 29°21' W 094°49'0 0.0
2018-Jun-11 23:29N 29°21' W 094°49'0 0.0
2018-Jun-11 22:59N 29°21' W 094°49'0 0.0
2018-Jun-11 22:30N 29°21' W 094°49'0 0.0
2018-Jun-11 22:00N 29°21' W 094°49'0 0.0
2018-Jun-11 21:30N 29°21' W 094°49'0 0.0
2018-Jun-11 21:00N 29°21' W 094°49'0 0.0
2018-Jun-11 20:30N 29°21' W 094°49'0 0.0
2018-Jun-11 19:59N 29°21' W 094°49'0 0.0
2018-Jun-11 19:30N 29°21' W 094°49'0 0.0
2018-Jun-11 18:59N 29°21' W 094°49'0 0.0
2018-Jun-11 18:30N 29°21' W 094°49'0 0.0
2018-Jun-11 17:57N 29°21' W 094°49'0 0.0
2018-Jun-11 17:30N 29°21' W 094°49'0 0.0
2018-Jun-11 17:00N 29°21' W 094°49'0 0.0
2018-Jun-11 16:27N 29°21' W 094°49'0 0.0
2018-Jun-11 16:00N 29°21' W 094°49'0 0.0
2018-Jun-11 15:18N 29°21' W 094°49'0 0.0
2018-Jun-11 15:00N 29°21' W 094°49'0 0.0
2018-Jun-11 14:27N 29°21' W 094°49'0 0.0
2018-Jun-11 14:00N 29°21' W 094°49'0 0.0
2018-Jun-11 13:29N 29°21' W 094°49'0 0.0
2018-Jun-11 13:00N 29°21' W 094°49'0 0.0
2018-Jun-11 12:30N 29°21' W 094°49'0 0.0
2018-Jun-11 11:59N 29°21' W 094°49'0 0.0
2018-Jun-11 11:31N 29°21' W 094°49'0 0.0
2018-Jun-11 11:00N 29°21' W 094°49'0 0.0
2018-Jun-11 10:29N 29°21' W 094°49'0 0.0
2018-Jun-11 09:57N 29°21' W 094°49'0 0.0
2018-Jun-11 08:58N 29°21' W 094°49'0 0.0
2018-Jun-11 08:30N 29°21' W 094°49'0 0.0
2018-Jun-11 07:58N 29°21' W 094°49'0 0.0
2018-Jun-11 07:30N 29°21' W 094°49'0 0.0
2018-Jun-11 06:20N 29°21' W 094°49'0 0.0
2018-Jun-11 05:50N 29°21' W 094°49'0 0.0
2018-Jun-11 05:30N 29°21' W 094°49'0 0.0
2018-Jun-11 04:44N 29°21' W 094°49'0 0.0
2018-Jun-11 04:21N 29°21' W 094°49'2 5.1
2018-Jun-11 04:00N 29°20' W 094°51'0 0.6
2018-Jun-11 03:30N 29°20' W 094°51'0 0.3
2018-Jun-11 03:00N 29°19' W 094°51'2 4.4
2018-Jun-11 02:27N 29°21' W 094°49'33 5.6
2018-Jun-10 20:36N 29°38' W 094°18'2 5.7
2018-Jun-10 20:16N 29°39' W 094°16'1 5.6
2018-Jun-10 20:00N 29°40' W 094°14'3 5.6
2018-Jun-10 19:30N 29°41' W 094°11'1 2.0
2018-Jun-10 19:00N 29°41' W 094°10'3 5.3
2018-Jun-10 18:30N 29°43' W 094°08'3 5.4
2018-Jun-10 18:00N 29°44' W 094°05'2 3.5
2018-Jun-10 17:30N 29°46' W 094°04'3 5.4
2018-Jun-10 17:00N 29°47' W 094°01'3 5.5
2018-Jun-10 16:30N 29°49' W 093°59'3 5.8
2018-Jun-10 16:00N 29°51' W 093°57'3 6.8
2018-Jun-10 15:30N 29°54' W 093°54'3 6.9
2018-Jun-10 15:00N 29°57' W 093°52'3 5.9
2018-Jun-10 14:30N 29°59' W 093°49'2 1.8
2018-Jun-10 13:30N 29°59' W 093°47'0 0.1
2018-Jun-10 13:00N 29°59' W 093°47'0 0.2
2018-Jun-10 12:30N 29°59' W 093°47'0 0.0
2018-Jun-10 12:00N 29°59' W 093°47'0 0.0
2018-Jun-10 11:30N 29°59' W 093°47'0 0.0
2018-Jun-10 10:59N 29°59' W 093°47'0 0.0
2018-Jun-10 10:28N 29°59' W 093°47'0 0.0
2018-Jun-10 09:59N 29°59' W 093°47'1 1.2
2018-Jun-10 09:30N 29°59' W 093°48'0 0.7
2018-Jun-10 09:00N 29°59' W 093°48'0 0.7
2018-Jun-10 08:30N 29°60' W 093°47'2 4.4
2018-Jun-10 08:00N 30°01' W 093°45'3 5.8
2018-Jun-10 07:30N 30°03' W 093°43'2 3.4
2018-Jun-10 07:00N 30°04' W 093°41'2 4.0
2018-Jun-10 06:29N 30°04' W 093°39'3 5.9
2018-Jun-10 05:56N 30°04' W 093°35'3 5.8
2018-Jun-10 05:30N 30°04' W 093°32'3 5.6
2018-Jun-10 05:00N 30°04' W 093°29'3 5.6
2018-Jun-10 04:30N 30°04' W 093°26'3 5.4
2018-Jun-10 04:00N 30°04' W 093°23'2 3.3
2018-Jun-10 03:31N 30°04' W 093°21'2 4.4
2018-Jun-10 03:00N 30°06' W 093°19'2 3.1
2018-Jun-10 02:30N 30°05' W 093°18'1 2.7
2018-Jun-10 02:00N 30°04' W 093°16'0 0.0
2018-Jun-10 01:30N 30°04' W 093°16'0 0.0
2018-Jun-10 01:00N 30°04' W 093°16'0 0.0
2018-Jun-10 00:30N 30°04' W 093°16'0 0.0
2018-Jun-10 00:00N 30°04' W 093°16'0 0.0
2018-Jun-09 23:29N 30°04' W 093°16'0 0.0
2018-Jun-09 23:00N 30°04' W 093°16'0 0.0
2018-Jun-09 22:30N 30°04' W 093°16'0 0.0
2018-Jun-09 22:00N 30°04' W 093°16'0 0.0
2018-Jun-09 21:31N 30°04' W 093°16'0 0.1
2018-Jun-09 21:00N 30°04' W 093°16'0 0.1
2018-Jun-09 20:30N 30°04' W 093°16'0 0.0
2018-Jun-09 20:00N 30°04' W 093°16'0 0.1
2018-Jun-09 19:30N 30°04' W 093°16'0 0.0
2018-Jun-09 19:00N 30°04' W 093°16'0 0.0
2018-Jun-09 18:30N 30°04' W 093°16'0 0.0
2018-Jun-09 18:00N 30°04' W 093°16'1 1.5
2018-Jun-09 17:31N 30°04' W 093°16'1 2.2
2018-Jun-09 17:00N 30°03' W 093°16'0 0.4
2018-Jun-09 16:30N 30°02' W 093°16'2 3.0
2018-Jun-09 16:00N 30°02' W 093°14'0 0.0
2018-Jun-09 15:01N 30°02' W 093°14'0 0.0
2018-Jun-09 14:31N 30°02' W 093°14'0 0.0
2018-Jun-09 14:00N 30°02' W 093°14'0 0.0
2018-Jun-09 13:30N 30°02' W 093°14'0 0.0
2018-Jun-09 13:00N 30°02' W 093°14'0 0.0
2018-Jun-09 12:30N 30°02' W 093°14'0 0.0
2018-Jun-09 12:00N 30°02' W 093°14'0 0.1
2018-Jun-09 11:31N 30°02' W 093°14'0 0.2
2018-Jun-09 11:00N 30°01' W 093°14'0 0.8
2018-Jun-09 10:30N 30°01' W 093°14'2 3.4
2018-Jun-09 10:01N 29°60' W 093°13'2 3.6
2018-Jun-09 09:30N 29°58' W 093°12'0 0.6
2018-Jun-09 08:59N 29°58' W 093°11'1 1.1
2018-Jun-09 08:28N 29°58' W 093°11'0 0.3
2018-Jun-09 08:00N 29°58' W 093°11'0 0.0
2018-Jun-09 07:28N 29°58' W 093°11'0 0.1
2018-Jun-09 07:00N 29°58' W 093°11'0 0.1
2018-Jun-09 06:30N 29°58' W 093°11'0 0.0
2018-Jun-09 06:00N 29°58' W 093°11'0 0.0
2018-Jun-09 05:30N 29°58' W 093°11'0 0.0
2018-Jun-09 05:00N 29°58' W 093°11'0 0.0
2018-Jun-09 04:30N 29°58' W 093°11'0 0.0
2018-Jun-09 04:00N 29°58' W 093°11'0 0.0
2018-Jun-09 03:30N 29°58' W 093°11'0 0.0
2018-Jun-09 03:00N 29°58' W 093°11'0 0.0
2018-Jun-09 02:31N 29°58' W 093°11'0 0.0
2018-Jun-09 01:59N 29°58' W 093°11'0 1.0
2018-Jun-09 01:30N 29°57' W 093°11'2 3.7
2018-Jun-09 01:00N 29°56' W 093°09'2 3.9
2018-Jun-09 00:30N 29°56' W 093°07'  

Dump ship's entire track history